sensor_id;sensor_type;location;lat;lon;timestamp;temperature;humidity
71837;DHT22;59686;51.716;7.016;2024-03-25T00:00:12;9.40;99.70
71837;DHT22;59686;51.716;7.016;2024-03-25T00:02:48;9.40;99.70
71837;DHT22;59686;51.716;7.016;2024-03-25T00:05:13;9.40;99.70
71837;DHT22;59686;51.716;7.016;2024-03-25T00:07:41;9.40;99.70
71837;DHT22;59686;51.716;7.016;2024-03-25T00:10:07;9.40;99.70
71837;DHT22;59686;51.716;7.016;2024-03-25T00:12:37;9.40;99.70
71837;DHT22;59686;51.716;7.016;2024-03-25T00:15:03;9.40;99.70
71837;DHT22;59686;51.716;7.016;2024-03-25T00:17:28;9.40;99.70
71837;DHT22;59686;51.716;7.016;2024-03-25T00:19:54;9.40;99.70
71837;DHT22;59686;51.716;7.016;2024-03-25T00:22:22;9.40;99.70
71837;DHT22;59686;51.716;7.016;2024-03-25T00:24:48;9.40;99.70
71837;DHT22;59686;51.716;7.016;2024-03-25T00:27:14;9.40;99.70
71837;DHT22;59686;51.716;7.016;2024-03-25T00:29:40;9.40;99.70
71837;DHT22;59686;51.716;7.016;2024-03-25T00:32:06;9.40;99.80
71837;DHT22;59686;51.716;7.016;2024-03-25T00:34:32;9.40;99.80
71837;DHT22;59686;51.716;7.016;2024-03-25T00:36:58;9.40;99.80
71837;DHT22;59686;51.716;7.016;2024-03-25T00:39:24;9.40;99.80
71837;DHT22;59686;51.716;7.016;2024-03-25T00:41:51;9.40;99.80
71837;DHT22;59686;51.716;7.016;2024-03-25T00:44:18;9.30;99.80
71837;DHT22;59686;51.716;7.016;2024-03-25T00:46:44;9.40;99.80
71837;DHT22;59686;51.716;7.016;2024-03-25T00:49:11;9.40;99.80
71837;DHT22;59686;51.716;7.016;2024-03-25T00:51:37;9.40;99.80
71837;DHT22;59686;51.716;7.016;2024-03-25T00:54:03;9.40;99.80
71837;DHT22;59686;51.716;7.016;2024-03-25T00:56:32;9.40;99.80
71837;DHT22;59686;51.716;7.016;2024-03-25T00:58:58;9.30;99.70
71837;DHT22;59686;51.716;7.016;2024-03-25T01:01:35;9.40;99.70
71837;DHT22;59686;51.716;7.016;2024-03-25T01:04:03;9.40;99.70
71837;DHT22;59686;51.716;7.016;2024-03-25T01:06:30;9.30;99.70
71837;DHT22;59686;51.716;7.016;2024-03-25T01:08:55;9.30;99.70
71837;DHT22;59686;51.716;7.016;2024-03-25T01:11:21;9.30;99.60
71837;DHT22;59686;51.716;7.016;2024-03-25T01:13:49;9.40;99.70
71837;DHT22;59686;51.716;7.016;2024-03-25T01:16:14;9.40;99.60
71837;DHT22;59686;51.716;7.016;2024-03-25T01:18:40;9.40;99.60
71837;DHT22;59686;51.716;7.016;2024-03-25T01:21:06;9.30;99.60
71837;DHT22;59686;51.716;7.016;2024-03-25T01:23:32;9.40;99.60
71837;DHT22;59686;51.716;7.016;2024-03-25T01:25:57;9.30;99.50
71837;DHT22;59686;51.716;7.016;2024-03-25T01:28:24;9.40;99.60
71837;DHT22;59686;51.716;7.016;2024-03-25T01:30:50;9.40;99.50
71837;DHT22;59686;51.716;7.016;2024-03-25T01:33:16;9.30;99.50
71837;DHT22;59686;51.716;7.016;2024-03-25T01:35:42;9.30;99.50
71837;DHT22;59686;51.716;7.016;2024-03-25T01:38:08;9.30;99.50
71837;DHT22;59686;51.716;7.016;2024-03-25T01:40:34;9.30;99.60
71837;DHT22;59686;51.716;7.016;2024-03-25T01:43:01;9.30;99.90
71837;DHT22;59686;51.716;7.016;2024-03-25T01:45:29;9.30;99.60
71837;DHT22;59686;51.716;7.016;2024-03-25T01:47:57;9.30;99.60
71837;DHT22;59686;51.716;7.016;2024-03-25T01:50:24;9.30;99.60
71837;DHT22;59686;51.716;7.016;2024-03-25T01:52:51;9.30;99.60
71837;DHT22;59686;51.716;7.016;2024-03-25T01:55:26;9.30;99.60
71837;DHT22;59686;51.716;7.016;2024-03-25T01:57:52;9.40;99.60
71837;DHT22;59686;51.716;7.016;2024-03-25T02:00:19;9.40;99.60
71837;DHT22;59686;51.716;7.016;2024-03-25T02:02:45;9.30;99.60
71837;DHT22;59686;51.716;7.016;2024-03-25T02:05:13;9.30;99.60
71837;DHT22;59686;51.716;7.016;2024-03-25T02:07:40;9.30;99.60
71837;DHT22;59686;51.716;7.016;2024-03-25T02:10:07;9.30;99.60
71837;DHT22;59686;51.716;7.016;2024-03-25T02:12:43;9.30;99.70
71837;DHT22;59686;51.716;7.016;2024-03-25T02:15:10;9.30;99.60
71837;DHT22;59686;51.716;7.016;2024-03-25T02:17:36;9.30;99.60
71837;DHT22;59686;51.716;7.016;2024-03-25T02:20:03;9.30;99.60
71837;DHT22;59686;51.716;7.016;2024-03-25T02:22:31;9.30;99.60
71837;DHT22;59686;51.716;7.016;2024-03-25T02:25:10;9.30;99.60
71837;DHT22;59686;51.716;7.016;2024-03-25T02:27:37;9.30;99.60
71837;DHT22;59686;51.716;7.016;2024-03-25T02:30:08;9.30;99.60
71837;DHT22;59686;51.716;7.016;2024-03-25T02:32:35;9.30;99.60
71837;DHT22;59686;51.716;7.016;2024-03-25T02:35:02;9.30;99.60
71837;DHT22;59686;51.716;7.016;2024-03-25T02:37:29;9.30;99.60
71837;DHT22;59686;51.716;7.016;2024-03-25T02:39:58;9.30;99.60
71837;DHT22;59686;51.716;7.016;2024-03-25T02:42:26;9.30;99.60
71837;DHT22;59686;51.716;7.016;2024-03-25T02:44:54;9.30;99.60
71837;DHT22;59686;51.716;7.016;2024-03-25T02:47:20;9.30;99.60
71837;DHT22;59686;51.716;7.016;2024-03-25T02:49:46;9.30;99.60
71837;DHT22;59686;51.716;7.016;2024-03-25T02:52:11;9.40;99.60
71837;DHT22;59686;51.716;7.016;2024-03-25T02:54:37;9.30;99.50
71837;DHT22;59686;51.716;7.016;2024-03-25T02:57:03;9.30;99.50
71837;DHT22;59686;51.716;7.016;2024-03-25T02:59:29;9.30;99.50
71837;DHT22;59686;51.716;7.016;2024-03-25T03:01:54;9.30;99.60
71837;DHT22;59686;51.716;7.016;2024-03-25T03:04:20;9.20;99.60
71837;DHT22;59686;51.716;7.016;2024-03-25T03:06:46;9.20;99.60
71837;DHT22;59686;51.716;7.016;2024-03-25T03:09:11;9.30;99.60
71837;DHT22;59686;51.716;7.016;2024-03-25T03:11:37;9.20;99.50
71837;DHT22;59686;51.716;7.016;2024-03-25T03:14:09;9.30;99.60
71837;DHT22;59686;51.716;7.016;2024-03-25T03:16:35;9.30;99.50
71837;DHT22;59686;51.716;7.016;2024-03-25T03:19:01;9.30;99.60
71837;DHT22;59686;51.716;7.016;2024-03-25T03:21:27;9.20;99.50
71837;DHT22;59686;51.716;7.016;2024-03-25T03:23:52;9.20;99.50
71837;DHT22;59686;51.716;7.016;2024-03-25T03:26:18;9.20;99.50
71837;DHT22;59686;51.716;7.016;2024-03-25T03:28:44;9.20;99.40
71837;DHT22;59686;51.716;7.016;2024-03-25T03:31:10;9.20;99.50
71837;DHT22;59686;51.716;7.016;2024-03-25T03:33:36;9.20;99.50
71837;DHT22;59686;51.716;7.016;2024-03-25T03:36:01;9.20;99.50
71837;DHT22;59686;51.716;7.016;2024-03-25T03:38:27;9.20;99.40
71837;DHT22;59686;51.716;7.016;2024-03-25T03:41:00;9.20;99.40
71837;DHT22;59686;51.716;7.016;2024-03-25T03:43:27;9.20;99.40
71837;DHT22;59686;51.716;7.016;2024-03-25T03:45:52;9.20;99.40
71837;DHT22;59686;51.716;7.016;2024-03-25T03:48:18;9.20;99.40
71837;DHT22;59686;51.716;7.016;2024-03-25T03:50:44;9.20;99.40
71837;DHT22;59686;51.716;7.016;2024-03-25T03:53:11;9.20;99.40
71837;DHT22;59686;51.716;7.016;2024-03-25T03:55:37;9.20;99.40
71837;DHT22;59686;51.716;7.016;2024-03-25T03:58:02;9.20;99.40
71837;DHT22;59686;51.716;7.016;2024-03-25T04:00:34;9.20;99.40
71837;DHT22;59686;51.716;7.016;2024-03-25T04:03:01;9.20;99.40
71837;DHT22;59686;51.716;7.016;2024-03-25T04:05:30;9.20;99.40
71837;DHT22;59686;51.716;7.016;2024-03-25T04:07:56;9.10;99.40
71837;DHT22;59686;51.716;7.016;2024-03-25T04:10:23;9.10;99.40
71837;DHT22;59686;51.716;7.016;2024-03-25T04:12:48;9.10;99.30
71837;DHT22;59686;51.716;7.016;2024-03-25T04:15:14;9.20;99.40
71837;DHT22;59686;51.716;7.016;2024-03-25T04:17:44;9.10;99.40
71837;DHT22;59686;51.716;7.016;2024-03-25T04:20:11;9.20;99.40
71837;DHT22;59686;51.716;7.016;2024-03-25T04:22:40;9.10;99.30
71837;DHT22;59686;51.716;7.016;2024-03-25T04:25:07;9.10;99.30
71837;DHT22;59686;51.716;7.016;2024-03-25T04:27:33;9.10;99.30
71837;DHT22;59686;51.716;7.016;2024-03-25T04:29:59;9.10;99.40
71837;DHT22;59686;51.716;7.016;2024-03-25T04:32:25;9.10;99.40
71837;DHT22;59686;51.716;7.016;2024-03-25T04:34:51;9.10;99.40
71837;DHT22;59686;51.716;7.016;2024-03-25T04:37:16;9.10;99.40
71837;DHT22;59686;51.716;7.016;2024-03-25T04:39:44;9.10;99.40
71837;DHT22;59686;51.716;7.016;2024-03-25T04:42:10;9.10;99.40
71837;DHT22;59686;51.716;7.016;2024-03-25T04:44:36;9.10;99.40
71837;DHT22;59686;51.716;7.016;2024-03-25T04:47:03;9.10;99.40
71837;DHT22;59686;51.716;7.016;2024-03-25T04:49:29;9.10;99.40
71837;DHT22;59686;51.716;7.016;2024-03-25T04:51:54;9.10;99.40
71837;DHT22;59686;51.716;7.016;2024-03-25T04:54:21;9.10;99.40
71837;DHT22;59686;51.716;7.016;2024-03-25T04:56:47;9.10;99.40
71837;DHT22;59686;51.716;7.016;2024-03-25T04:59:13;9.10;99.40
71837;DHT22;59686;51.716;7.016;2024-03-25T05:01:44;9.10;99.40
71837;DHT22;59686;51.716;7.016;2024-03-25T05:04:09;9.10;99.40
71837;DHT22;59686;51.716;7.016;2024-03-25T05:06:35;9.10;99.40
71837;DHT22;59686;51.716;7.016;2024-03-25T05:09:02;9.10;99.40
71837;DHT22;59686;51.716;7.016;2024-03-25T05:11:28;9.10;99.40
71837;DHT22;59686;51.716;7.016;2024-03-25T05:13:53;9.10;99.40
71837;DHT22;59686;51.716;7.016;2024-03-25T05:16:19;9.10;99.40
71837;DHT22;59686;51.716;7.016;2024-03-25T05:18:45;9.10;99.40
71837;DHT22;59686;51.716;7.016;2024-03-25T05:21:10;9.10;99.40
71837;DHT22;59686;51.716;7.016;2024-03-25T05:23:36;9.10;99.40
71837;DHT22;59686;51.716;7.016;2024-03-25T05:26:02;9.10;99.40
71837;DHT22;59686;51.716;7.016;2024-03-25T05:28:27;9.10;99.40
71837;DHT22;59686;51.716;7.016;2024-03-25T05:30:53;9.10;99.40
71837;DHT22;59686;51.716;7.016;2024-03-25T05:33:19;9.10;99.30
71837;DHT22;59686;51.716;7.016;2024-03-25T05:35:45;9.10;99.30
71837;DHT22;59686;51.716;7.016;2024-03-25T05:38:10;9.00;99.30
71837;DHT22;59686;51.716;7.016;2024-03-25T05:40:36;9.10;99.30
71837;DHT22;59686;51.716;7.016;2024-03-25T05:43:02;9.10;99.40
71837;DHT22;59686;51.716;7.016;2024-03-25T05:45:29;9.00;99.30
71837;DHT22;59686;51.716;7.016;2024-03-25T05:47:55;9.10;99.30
71837;DHT22;59686;51.716;7.016;2024-03-25T05:50:20;9.00;99.30
71837;DHT22;59686;51.716;7.016;2024-03-25T05:52:46;9.10;99.40
71837;DHT22;59686;51.716;7.016;2024-03-25T05:55:11;9.10;99.40
71837;DHT22;59686;51.716;7.016;2024-03-25T05:57:37;9.10;99.30
71837;DHT22;59686;51.716;7.016;2024-03-25T06:00:03;9.10;99.30
71837;DHT22;59686;51.716;7.016;2024-03-25T06:02:29;9.10;99.40
71837;DHT22;59686;51.716;7.016;2024-03-25T06:04:56;9.10;99.40
71837;DHT22;59686;51.716;7.016;2024-03-25T06:07:22;9.00;99.30
71837;DHT22;59686;51.716;7.016;2024-03-25T06:09:48;9.10;99.40
71837;DHT22;59686;51.716;7.016;2024-03-25T06:12:14;9.00;99.30
71837;DHT22;59686;51.716;7.016;2024-03-25T06:14:39;9.00;99.30
71837;DHT22;59686;51.716;7.016;2024-03-25T06:17:05;9.00;99.30
71837;DHT22;59686;51.716;7.016;2024-03-25T06:19:32;9.00;99.30
71837;DHT22;59686;51.716;7.016;2024-03-25T06:21:58;9.00;99.30
71837;DHT22;59686;51.716;7.016;2024-03-25T06:24:24;9.00;99.40
71837;DHT22;59686;51.716;7.016;2024-03-25T06:26:50;9.00;99.40
71837;DHT22;59686;51.716;7.016;2024-03-25T06:29:15;9.10;99.40
71837;DHT22;59686;51.716;7.016;2024-03-25T06:31:41;9.00;99.40
71837;DHT22;59686;51.716;7.016;2024-03-25T06:34:25;9.10;99.40
71837;DHT22;59686;51.716;7.016;2024-03-25T06:36:51;9.00;99.30
71837;DHT22;59686;51.716;7.016;2024-03-25T06:39:17;9.10;99.40
71837;DHT22;59686;51.716;7.016;2024-03-25T06:41:44;9.10;99.30
71837;DHT22;59686;51.716;7.016;2024-03-25T06:44:09;9.00;99.30
71837;DHT22;59686;51.716;7.016;2024-03-25T06:46:35;9.00;99.30
71837;DHT22;59686;51.716;7.016;2024-03-25T06:49:01;9.00;99.30
71837;DHT22;59686;51.716;7.016;2024-03-25T06:51:26;9.00;99.40
71837;DHT22;59686;51.716;7.016;2024-03-25T06:53:52;9.00;99.40
71837;DHT22;59686;51.716;7.016;2024-03-25T06:56:18;9.00;99.40
71837;DHT22;59686;51.716;7.016;2024-03-25T06:58:44;9.10;99.40
71837;DHT22;59686;51.716;7.016;2024-03-25T07:01:11;9.00;99.40
71837;DHT22;59686;51.716;7.016;2024-03-25T07:03:39;9.00;99.40
71837;DHT22;59686;51.716;7.016;2024-03-25T07:06:06;9.00;99.40
71837;DHT22;59686;51.716;7.016;2024-03-25T07:08:32;9.10;99.40
71837;DHT22;59686;51.716;7.016;2024-03-25T07:10:58;9.10;99.40
71837;DHT22;59686;51.716;7.016;2024-03-25T07:13:24;9.00;99.40
71837;DHT22;59686;51.716;7.016;2024-03-25T07:15:50;9.00;99.40
71837;DHT22;59686;51.716;7.016;2024-03-25T07:18:16;9.10;99.40
71837;DHT22;59686;51.716;7.016;2024-03-25T07:20:43;9.20;99.40
71837;DHT22;59686;51.716;7.016;2024-03-25T07:23:09;9.00;99.40
71837;DHT22;59686;51.716;7.016;2024-03-25T07:25:35;9.10;99.40
71837;DHT22;59686;51.716;7.016;2024-03-25T07:28:02;9.00;99.40
71837;DHT22;59686;51.716;7.016;2024-03-25T07:30:28;9.00;99.40
71837;DHT22;59686;51.716;7.016;2024-03-25T07:32:58;9.10;99.50
71837;DHT22;59686;51.716;7.016;2024-03-25T07:35:24;9.10;99.40
71837;DHT22;59686;51.716;7.016;2024-03-25T07:37:50;9.10;99.40
71837;DHT22;59686;51.716;7.016;2024-03-25T07:40:20;9.10;99.40
71837;DHT22;59686;51.716;7.016;2024-03-25T07:42:47;9.00;99.40
71837;DHT22;59686;51.716;7.016;2024-03-25T07:45:14;9.00;99.40
71837;DHT22;59686;51.716;7.016;2024-03-25T07:47:40;9.10;99.40
71837;DHT22;59686;51.716;7.016;2024-03-25T07:50:06;9.10;99.50
71837;DHT22;59686;51.716;7.016;2024-03-25T07:52:32;9.00;99.40
71837;DHT22;59686;51.716;7.016;2024-03-25T07:54:58;9.10;99.40
71837;DHT22;59686;51.716;7.016;2024-03-25T07:57:24;9.10;99.40
71837;DHT22;59686;51.716;7.016;2024-03-25T07:59:49;9.10;99.40
71837;DHT22;59686;51.716;7.016;2024-03-25T08:02:15;9.10;99.40
71837;DHT22;59686;51.716;7.016;2024-03-25T08:04:41;9.10;99.40
71837;DHT22;59686;51.716;7.016;2024-03-25T08:07:07;9.10;99.50
71837;DHT22;59686;51.716;7.016;2024-03-25T08:09:33;9.10;99.50
71837;DHT22;59686;51.716;7.016;2024-03-25T08:11:58;9.10;99.60
71837;DHT22;59686;51.716;7.016;2024-03-25T08:14:25;9.10;99.50
71837;DHT22;59686;51.716;7.016;2024-03-25T08:16:51;9.10;99.40
71837;DHT22;59686;51.716;7.016;2024-03-25T08:19:17;9.10;99.50
71837;DHT22;59686;51.716;7.016;2024-03-25T08:21:42;9.10;99.50
71837;DHT22;59686;51.716;7.016;2024-03-25T08:24:08;9.10;99.50
71837;DHT22;59686;51.716;7.016;2024-03-25T08:26:34;9.10;99.50
71837;DHT22;59686;51.716;7.016;2024-03-25T08:28:59;9.10;99.50
71837;DHT22;59686;51.716;7.016;2024-03-25T08:31:25;9.10;99.50
71837;DHT22;59686;51.716;7.016;2024-03-25T08:33:51;9.10;99.50
71837;DHT22;59686;51.716;7.016;2024-03-25T08:36:17;9.10;99.50
71837;DHT22;59686;51.716;7.016;2024-03-25T08:38:44;9.10;99.80
71837;DHT22;59686;51.716;7.016;2024-03-25T08:41:10;9.10;99.50
71837;DHT22;59686;51.716;7.016;2024-03-25T08:43:35;9.10;99.40
71837;DHT22;59686;51.716;7.016;2024-03-25T08:46:01;9.10;99.80
71837;DHT22;59686;51.716;7.016;2024-03-25T08:48:29;9.10;99.50
71837;DHT22;59686;51.716;7.016;2024-03-25T08:50:54;9.10;99.40
71837;DHT22;59686;51.716;7.016;2024-03-25T08:53:20;9.20;99.40
71837;DHT22;59686;51.716;7.016;2024-03-25T08:55:47;9.10;99.30
71837;DHT22;59686;51.716;7.016;2024-03-25T08:58:13;9.10;99.30
71837;DHT22;59686;51.716;7.016;2024-03-25T09:00:39;9.10;99.10
71837;DHT22;59686;51.716;7.016;2024-03-25T09:03:05;9.10;99.10
71837;DHT22;59686;51.716;7.016;2024-03-25T09:05:30;9.00;99.10
71837;DHT22;59686;51.716;7.016;2024-03-25T09:07:56;9.10;99.00
71837;DHT22;59686;51.716;7.016;2024-03-25T09:10:24;9.10;98.80
71837;DHT22;59686;51.716;7.016;2024-03-25T09:13:08;9.10;98.90
71837;DHT22;59686;51.716;7.016;2024-03-25T09:15:34;9.10;98.80
71837;DHT22;59686;51.716;7.016;2024-03-25T09:18:00;9.10;98.70
71837;DHT22;59686;51.716;7.016;2024-03-25T09:20:26;9.20;98.70
71837;DHT22;59686;51.716;7.016;2024-03-25T09:22:52;9.10;98.40
71837;DHT22;59686;51.716;7.016;2024-03-25T09:25:20;9.10;98.30
71837;DHT22;59686;51.716;7.016;2024-03-25T09:27:49;9.20;98.40
71837;DHT22;59686;51.716;7.016;2024-03-25T09:30:16;9.20;98.10
71837;DHT22;59686;51.716;7.016;2024-03-25T09:32:43;9.10;97.90
71837;DHT22;59686;51.716;7.016;2024-03-25T09:35:09;9.10;97.90
71837;DHT22;59686;51.716;7.016;2024-03-25T09:37:35;9.10;97.80
71837;DHT22;59686;51.716;7.016;2024-03-25T09:40:02;9.20;98.00
71837;DHT22;59686;51.716;7.016;2024-03-25T09:42:46;9.20;98.00
71837;DHT22;59686;51.716;7.016;2024-03-25T09:45:13;9.20;97.90
71837;DHT22;59686;51.716;7.016;2024-03-25T09:47:42;9.20;98.20
71837;DHT22;59686;51.716;7.016;2024-03-25T09:50:10;9.30;98.30
71837;DHT22;59686;51.716;7.016;2024-03-25T09:52:38;9.30;98.30
71837;DHT22;59686;51.716;7.016;2024-03-25T09:55:04;9.30;98.30
71837;DHT22;59686;51.716;7.016;2024-03-25T09:57:30;9.40;98.30
71837;DHT22;59686;51.716;7.016;2024-03-25T09:59:56;9.50;98.30
71837;DHT22;59686;51.716;7.016;2024-03-25T10:02:22;9.40;98.20
71837;DHT22;59686;51.716;7.016;2024-03-25T10:04:52;9.40;98.10
71837;DHT22;59686;51.716;7.016;2024-03-25T10:07:24;9.40;97.80
71837;DHT22;59686;51.716;7.016;2024-03-25T10:09:53;9.40;97.80
71837;DHT22;59686;51.716;7.016;2024-03-25T10:12:19;9.40;97.80
71837;DHT22;59686;51.716;7.016;2024-03-25T10:14:45;9.40;97.90
71837;DHT22;59686;51.716;7.016;2024-03-25T10:17:11;9.40;98.00
71837;DHT22;59686;51.716;7.016;2024-03-25T10:19:37;9.40;98.00
71837;DHT22;59686;51.716;7.016;2024-03-25T10:22:07;9.40;98.00
71837;DHT22;59686;51.716;7.016;2024-03-25T10:24:46;9.40;98.00
71837;DHT22;59686;51.716;7.016;2024-03-25T10:27:22;9.50;98.00
71837;DHT22;59686;51.716;7.016;2024-03-25T10:29:51;9.50;98.00
71837;DHT22;59686;51.716;7.016;2024-03-25T10:32:17;9.50;98.00
71837;DHT22;59686;51.716;7.016;2024-03-25T10:34:44;9.50;98.00
71837;DHT22;59686;51.716;7.016;2024-03-25T10:37:10;9.50;98.00
71837;DHT22;59686;51.716;7.016;2024-03-25T10:39:48;9.50;98.10
71837;DHT22;59686;51.716;7.016;2024-03-25T10:42:18;9.50;98.00
71837;DHT22;59686;51.716;7.016;2024-03-25T10:44:47;9.50;98.00
71837;DHT22;59686;51.716;7.016;2024-03-25T10:47:19;9.50;98.00
71837;DHT22;59686;51.716;7.016;2024-03-25T10:49:49;9.50;98.00
71837;DHT22;59686;51.716;7.016;2024-03-25T10:52:16;9.50;97.90
71837;DHT22;59686;51.716;7.016;2024-03-25T10:54:45;9.50;97.60
71837;DHT22;59686;51.716;7.016;2024-03-25T10:57:13;9.50;97.70
71837;DHT22;59686;51.716;7.016;2024-03-25T10:59:40;9.50;97.90
71837;DHT22;59686;51.716;7.016;2024-03-25T11:02:10;9.50;98.00
71837;DHT22;59686;51.716;7.016;2024-03-25T11:04:36;9.50;98.00
71837;DHT22;59686;51.716;7.016;2024-03-25T11:07:12;9.50;97.90
71837;DHT22;59686;51.716;7.016;2024-03-25T11:09:38;9.50;97.90
71837;DHT22;59686;51.716;7.016;2024-03-25T11:12:05;9.60;98.00
71837;DHT22;59686;51.716;7.016;2024-03-25T11:14:31;9.50;98.00
71837;DHT22;59686;51.716;7.016;2024-03-25T11:17:01;9.60;97.90
71837;DHT22;59686;51.716;7.016;2024-03-25T11:19:29;9.60;97.60
71837;DHT22;59686;51.716;7.016;2024-03-25T11:22:09;9.60;97.60
71837;DHT22;59686;51.716;7.016;2024-03-25T11:24:43;9.70;97.60
71837;DHT22;59686;51.716;7.016;2024-03-25T11:27:09;9.70;97.70
71837;DHT22;59686;51.716;7.016;2024-03-25T11:29:35;9.70;97.70
71837;DHT22;59686;51.716;7.016;2024-03-25T11:32:04;9.70;97.70
71837;DHT22;59686;51.716;7.016;2024-03-25T11:34:31;9.70;97.50
71837;DHT22;59686;51.716;7.016;2024-03-25T11:36:57;9.70;97.50
71837;DHT22;59686;51.716;7.016;2024-03-25T11:39:26;9.70;97.40
71837;DHT22;59686;51.716;7.016;2024-03-25T11:41:54;9.80;97.20
71837;DHT22;59686;51.716;7.016;2024-03-25T11:44:20;9.80;97.20
71837;DHT22;59686;51.716;7.016;2024-03-25T11:46:47;9.70;96.70
71837;DHT22;59686;51.716;7.016;2024-03-25T11:49:14;9.90;97.40
71837;DHT22;59686;51.716;7.016;2024-03-25T11:51:42;9.80;96.90
71837;DHT22;59686;51.716;7.016;2024-03-25T11:54:10;9.90;96.90
71837;DHT22;59686;51.716;7.016;2024-03-25T11:56:36;9.90;96.90
71837;DHT22;59686;51.716;7.016;2024-03-25T11:59:05;9.90;96.80
71837;DHT22;59686;51.716;7.016;2024-03-25T12:01:32;9.90;96.90
71837;DHT22;59686;51.716;7.016;2024-03-25T12:04:15;9.90;96.90
71837;DHT22;59686;51.716;7.016;2024-03-25T12:06:41;10.00;96.90
71837;DHT22;59686;51.716;7.016;2024-03-25T12:09:06;10.00;96.70
71837;DHT22;59686;51.716;7.016;2024-03-25T12:11:53;10.00;96.60
71837;DHT22;59686;51.716;7.016;2024-03-25T12:14:21;10.00;96.60
71837;DHT22;59686;51.716;7.016;2024-03-25T12:16:47;10.10;96.60
71837;DHT22;59686;51.716;7.016;2024-03-25T12:19:15;10.10;96.40
71837;DHT22;59686;51.716;7.016;2024-03-25T12:21:41;10.10;96.40
71837;DHT22;59686;51.716;7.016;2024-03-25T12:24:07;10.10;96.40
71837;DHT22;59686;51.716;7.016;2024-03-25T12:26:34;10.10;96.20
71837;DHT22;59686;51.716;7.016;2024-03-25T12:29:01;10.00;96.20
71837;DHT22;59686;51.716;7.016;2024-03-25T12:31:29;10.20;96.20
71837;DHT22;59686;51.716;7.016;2024-03-25T12:34:09;10.10;96.20
71837;DHT22;59686;51.716;7.016;2024-03-25T12:36:35;10.10;96.40
71837;DHT22;59686;51.716;7.016;2024-03-25T12:39:01;10.10;96.20
71837;DHT22;59686;51.716;7.016;2024-03-25T12:41:27;10.10;96.20
71837;DHT22;59686;51.716;7.016;2024-03-25T12:43:54;10.00;96.40
71837;DHT22;59686;51.716;7.016;2024-03-25T12:46:20;10.10;96.40
71837;DHT22;59686;51.716;7.016;2024-03-25T12:48:47;10.10;96.40
71837;DHT22;59686;51.716;7.016;2024-03-25T12:51:14;10.20;96.50
71837;DHT22;59686;51.716;7.016;2024-03-25T12:53:40;10.20;96.30
71837;DHT22;59686;51.716;7.016;2024-03-25T12:56:06;10.30;96.20
71837;DHT22;59686;51.716;7.016;2024-03-25T12:58:34;10.30;96.10
71837;DHT22;59686;51.716;7.016;2024-03-25T13:01:00;10.40;95.90
71837;DHT22;59686;51.716;7.016;2024-03-25T13:03:26;10.50;95.70
71837;DHT22;59686;51.716;7.016;2024-03-25T13:05:52;10.40;95.80
71837;DHT22;59686;51.716;7.016;2024-03-25T13:08:19;10.40;95.70
71837;DHT22;59686;51.716;7.016;2024-03-25T13:10:45;10.40;95.50
71837;DHT22;59686;51.716;7.016;2024-03-25T13:13:11;10.50;95.60
71837;DHT22;59686;51.716;7.016;2024-03-25T13:15:36;10.40;95.70
71837;DHT22;59686;51.716;7.016;2024-03-25T13:18:02;10.50;95.70
71837;DHT22;59686;51.716;7.016;2024-03-25T13:20:28;10.40;95.40
71837;DHT22;59686;51.716;7.016;2024-03-25T13:22:54;10.40;95.50
71837;DHT22;59686;51.716;7.016;2024-03-25T13:25:25;10.40;95.50
71837;DHT22;59686;51.716;7.016;2024-03-25T13:27:52;10.40;95.50
71837;DHT22;59686;51.716;7.016;2024-03-25T13:30:18;10.40;95.50
71837;DHT22;59686;51.716;7.016;2024-03-25T13:32:44;10.40;95.50
71837;DHT22;59686;51.716;7.016;2024-03-25T13:35:11;10.40;95.40
71837;DHT22;59686;51.716;7.016;2024-03-25T13:37:37;10.50;95.30
71837;DHT22;59686;51.716;7.016;2024-03-25T13:40:03;10.40;95.30
71837;DHT22;59686;51.716;7.016;2024-03-25T13:42:31;10.50;95.50
71837;DHT22;59686;51.716;7.016;2024-03-25T13:44:57;10.40;95.50
71837;DHT22;59686;51.716;7.016;2024-03-25T13:47:22;10.50;95.20
71837;DHT22;59686;51.716;7.016;2024-03-25T13:49:49;10.50;95.40
71837;DHT22;59686;51.716;7.016;2024-03-25T13:52:15;10.50;95.20
71837;DHT22;59686;51.716;7.016;2024-03-25T13:54:40;10.50;95.10
71837;DHT22;59686;51.716;7.016;2024-03-25T13:57:06;10.60;95.30
71837;DHT22;59686;51.716;7.016;2024-03-25T13:59:32;10.60;95.30
71837;DHT22;59686;51.716;7.016;2024-03-25T14:01:58;10.60;95.40
71837;DHT22;59686;51.716;7.016;2024-03-25T14:04:23;10.60;95.30
71837;DHT22;59686;51.716;7.016;2024-03-25T14:06:49;10.70;95.00
71837;DHT22;59686;51.716;7.016;2024-03-25T14:09:28;10.70;95.20
71837;DHT22;59686;51.716;7.016;2024-03-25T14:11:53;10.70;95.20
71837;DHT22;59686;51.716;7.016;2024-03-25T14:14:19;10.80;95.30
71837;DHT22;59686;51.716;7.016;2024-03-25T14:16:45;10.70;95.30
71837;DHT22;59686;51.716;7.016;2024-03-25T14:19:10;10.80;95.30
71837;DHT22;59686;51.716;7.016;2024-03-25T14:21:36;10.80;95.40
71837;DHT22;59686;51.716;7.016;2024-03-25T14:24:04;10.80;95.20
71837;DHT22;59686;51.716;7.016;2024-03-25T14:26:30;10.80;95.30
71837;DHT22;59686;51.716;7.016;2024-03-25T14:28:57;10.80;95.40
71837;DHT22;59686;51.716;7.016;2024-03-25T14:31:25;10.90;95.40
71837;DHT22;59686;51.716;7.016;2024-03-25T14:33:51;10.80;95.40
71837;DHT22;59686;51.716;7.016;2024-03-25T14:36:17;10.80;95.40
71837;DHT22;59686;51.716;7.016;2024-03-25T14:38:42;10.80;95.50
71837;DHT22;59686;51.716;7.016;2024-03-25T14:41:11;10.80;95.40
71837;DHT22;59686;51.716;7.016;2024-03-25T14:43:37;11.00;95.50
71837;DHT22;59686;51.716;7.016;2024-03-25T14:46:03;10.90;95.50
71837;DHT22;59686;51.716;7.016;2024-03-25T14:48:30;10.90;95.50
71837;DHT22;59686;51.716;7.016;2024-03-25T14:50:56;11.00;95.50
71837;DHT22;59686;51.716;7.016;2024-03-25T14:53:22;11.00;95.50
71837;DHT22;59686;51.716;7.016;2024-03-25T14:55:48;11.10;95.50
71837;DHT22;59686;51.716;7.016;2024-03-25T14:58:14;11.10;95.40
71837;DHT22;59686;51.716;7.016;2024-03-25T15:00:39;11.10;95.20
71837;DHT22;59686;51.716;7.016;2024-03-25T15:03:08;11.20;95.10
71837;DHT22;59686;51.716;7.016;2024-03-25T15:05:35;11.20;95.00
71837;DHT22;59686;51.716;7.016;2024-03-25T15:08:00;11.20;95.10
71837;DHT22;59686;51.716;7.016;2024-03-25T15:10:27;11.20;93.60
71837;DHT22;59686;51.716;7.016;2024-03-25T15:12:53;11.20;93.50
71837;DHT22;59686;51.716;7.016;2024-03-25T15:15:19;11.30;85.50
71837;DHT22;59686;51.716;7.016;2024-03-25T15:17:45;11.70;85.50
71837;DHT22;59686;51.716;7.016;2024-03-25T15:20:11;11.60;82.10
71837;DHT22;59686;51.716;7.016;2024-03-25T15:22:36;11.70;84.30
71837;DHT22;59686;51.716;7.016;2024-03-25T15:25:04;11.90;81.40
71837;DHT22;59686;51.716;7.016;2024-03-25T15:27:30;11.90;77.30
71837;DHT22;59686;51.716;7.016;2024-03-25T15:29:56;11.80;79.00
71837;DHT22;59686;51.716;7.016;2024-03-25T15:32:21;11.70;75.50
71837;DHT22;59686;51.716;7.016;2024-03-25T15:34:47;11.70;76.10
71837;DHT22;59686;51.716;7.016;2024-03-25T15:37:13;11.70;75.40
71837;DHT22;59686;51.716;7.016;2024-03-25T15:39:41;11.70;77.80